sensor_id;sensor_type;location;lat;lon;timestamp;temperature;humidity
14095;DHT22;18096;48.142;16.290;2023-06-22T00:00:54;22.60;99.90
14095;DHT22;18096;48.142;16.290;2023-06-22T00:03:21;22.60;99.90
14095;DHT22;18096;48.142;16.290;2023-06-22T00:05:48;22.60;99.90
14095;DHT22;18096;48.142;16.290;2023-06-22T00:08:14;22.60;99.90
14095;DHT22;18096;48.142;16.290;2023-06-22T00:10:40;22.60;99.90
14095;DHT22;18096;48.142;16.290;2023-06-22T00:13:07;22.60;99.90
14095;DHT22;18096;48.142;16.290;2023-06-22T00:15:33;22.60;99.90
14095;DHT22;18096;48.142;16.290;2023-06-22T00:17:59;22.60;99.90
14095;DHT22;18096;48.142;16.290;2023-06-22T00:20:25;22.50;99.90
14095;DHT22;18096;48.142;16.290;2023-06-22T00:22:55;22.50;99.90
14095;DHT22;18096;48.142;16.290;2023-06-22T00:25:20;22.50;99.90
14095;DHT22;18096;48.142;16.290;2023-06-22T00:27:47;22.50;99.90
14095;DHT22;18096;48.142;16.290;2023-06-22T00:30:13;22.50;99.90
14095;DHT22;18096;48.142;16.290;2023-06-22T00:32:38;22.40;99.90
14095;DHT22;18096;48.142;16.290;2023-06-22T00:35:05;22.40;99.90
14095;DHT22;18096;48.142;16.290;2023-06-22T00:37:30;22.30;99.90
14095;DHT22;18096;48.142;16.290;2023-06-22T00:39:56;22.30;99.90
14095;DHT22;18096;48.142;16.290;2023-06-22T00:42:22;22.30;99.90
14095;DHT22;18096;48.142;16.290;2023-06-22T00:44:48;22.30;99.90
14095;DHT22;18096;48.142;16.290;2023-06-22T00:47:15;22.30;99.90
14095;DHT22;18096;48.142;16.290;2023-06-22T00:49:42;22.30;99.90
14095;DHT22;18096;48.142;16.290;2023-06-22T00:52:09;22.20;99.90
14095;DHT22;18096;48.142;16.290;2023-06-22T00:54:42;22.20;99.90
14095;DHT22;18096;48.142;16.290;2023-06-22T00:57:12;22.20;99.90
14095;DHT22;18096;48.142;16.290;2023-06-22T00:59:42;22.10;99.90
14095;DHT22;18096;48.142;16.290;2023-06-22T01:02:08;22.10;99.90
14095;DHT22;18096;48.142;16.290;2023-06-22T01:04:37;22.00;99.90
14095;DHT22;18096;48.142;16.290;2023-06-22T01:07:30;22.00;99.90
14095;DHT22;18096;48.142;16.290;2023-06-22T01:10:25;22.10;99.90
14095;DHT22;18096;48.142;16.290;2023-06-22T01:12:59;22.10;99.90
14095;DHT22;18096;48.142;16.290;2023-06-22T01:15:51;22.00;99.90
14095;DHT22;18096;48.142;16.290;2023-06-22T01:18:17;21.90;99.90
14095;DHT22;18096;48.142;16.290;2023-06-22T01:20:44;21.90;99.90
14095;DHT22;18096;48.142;16.290;2023-06-22T01:26:37;21.90;99.90
14095;DHT22;18096;48.142;16.290;2023-06-22T01:29:04;21.90;99.90
14095;DHT22;18096;48.142;16.290;2023-06-22T01:31:31;21.80;99.90
14095;DHT22;18096;48.142;16.290;2023-06-22T01:34:03;21.80;99.90
14095;DHT22;18096;48.142;16.290;2023-06-22T01:36:31;21.80;99.90
14095;DHT22;18096;48.142;16.290;2023-06-22T01:38:57;21.80;99.90
14095;DHT22;18096;48.142;16.290;2023-06-22T01:41:26;21.70;99.90
14095;DHT22;18096;48.142;16.290;2023-06-22T01:43:53;21.70;99.90
14095;DHT22;18096;48.142;16.290;2023-06-22T01:46:20;21.70;99.90
14095;DHT22;18096;48.142;16.290;2023-06-22T01:48:46;21.70;99.90
14095;DHT22;18096;48.142;16.290;2023-06-22T01:51:12;21.60;99.90
14095;DHT22;18096;48.142;16.290;2023-06-22T01:53:38;21.50;99.90
14095;DHT22;18096;48.142;16.290;2023-06-22T01:56:04;21.50;99.90
14095;DHT22;18096;48.142;16.290;2023-06-22T01:58:30;21.50;99.90
14095;DHT22;18096;48.142;16.290;2023-06-22T02:01:12;21.50;99.90
14095;DHT22;18096;48.142;16.290;2023-06-22T02:03:44;21.50;99.90
14095;DHT22;18096;48.142;16.290;2023-06-22T02:06:18;21.50;99.90
14095;DHT22;18096;48.142;16.290;2023-06-22T02:08:54;21.40;99.90
14095;DHT22;18096;48.142;16.290;2023-06-22T02:11:21;21.40;99.90
14095;DHT22;18096;48.142;16.290;2023-06-22T02:13:48;21.40;99.90
14095;DHT22;18096;48.142;16.290;2023-06-22T02:16:15;21.40;99.90
14095;DHT22;18096;48.142;16.290;2023-06-22T02:18:49;21.40;99.90
14095;DHT22;18096;48.142;16.290;2023-06-22T02:21:21;21.40;99.90
14095;DHT22;18096;48.142;16.290;2023-06-22T02:23:47;21.40;99.90
14095;DHT22;18096;48.142;16.290;2023-06-22T02:26:13;21.40;99.90
14095;DHT22;18096;48.142;16.290;2023-06-22T02:28:39;21.20;99.90
14095;DHT22;18096;48.142;16.290;2023-06-22T02:31:05;21.20;99.90
14095;DHT22;18096;48.142;16.290;2023-06-22T02:33:30;21.20;99.90
14095;DHT22;18096;48.142;16.290;2023-06-22T02:35:56;21.20;99.90
14095;DHT22;18096;48.142;16.290;2023-06-22T02:38:21;21.20;99.90
14095;DHT22;18096;48.142;16.290;2023-06-22T02:40:50;21.10;99.90
14095;DHT22;18096;48.142;16.290;2023-06-22T02:43:16;21.10;99.90
14095;DHT22;18096;48.142;16.290;2023-06-22T02:45:42;21.10;99.90
14095;DHT22;18096;48.142;16.290;2023-06-22T02:48:07;21.10;99.90
14095;DHT22;18096;48.142;16.290;2023-06-22T02:50:33;21.10;99.90
14095;DHT22;18096;48.142;16.290;2023-06-22T02:52:59;21.00;99.90
14095;DHT22;18096;48.142;16.290;2023-06-22T02:55:24;21.00;99.90
14095;DHT22;18096;48.142;16.290;2023-06-22T02:57:50;21.00;99.90
14095;DHT22;18096;48.142;16.290;2023-06-22T03:00:18;21.00;99.90
14095;DHT22;18096;48.142;16.290;2023-06-22T03:02:46;20.90;99.90
14095;DHT22;18096;48.142;16.290;2023-06-22T03:05:12;20.90;99.90
14095;DHT22;18096;48.142;16.290;2023-06-22T03:07:43;20.90;99.90
14095;DHT22;18096;48.142;16.290;2023-06-22T03:10:12;20.90;99.90
14095;DHT22;18096;48.142;16.290;2023-06-22T03:12:38;20.90;99.90
14095;DHT22;18096;48.142;16.290;2023-06-22T03:15:12;20.90;99.90
14095;DHT22;18096;48.142;16.290;2023-06-22T03:17:39;20.80;99.90
14095;DHT22;18096;48.142;16.290;2023-06-22T03:20:06;20.80;99.90
14095;DHT22;18096;48.142;16.290;2023-06-22T03:22:36;20.80;99.90
14095;DHT22;18096;48.142;16.290;2023-06-22T03:25:02;20.80;99.90
14095;DHT22;18096;48.142;16.290;2023-06-22T03:27:28;20.80;99.90
14095;DHT22;18096;48.142;16.290;2023-06-22T03:29:53;20.90;99.90
14095;DHT22;18096;48.142;16.290;2023-06-22T03:32:19;20.90;99.90
14095;DHT22;18096;48.142;16.290;2023-06-22T03:34:44;20.80;99.90
14095;DHT22;18096;48.142;16.290;2023-06-22T03:37:14;20.80;99.90
14095;DHT22;18096;48.142;16.290;2023-06-22T03:39:40;20.90;99.90
14095;DHT22;18096;48.142;16.290;2023-06-22T03:42:06;20.90;99.90
14095;DHT22;18096;48.142;16.290;2023-06-22T03:44:32;20.90;99.90
14095;DHT22;18096;48.142;16.290;2023-06-22T03:46:57;20.90;99.90
14095;DHT22;18096;48.142;16.290;2023-06-22T03:49:23;20.90;99.90
14095;DHT22;18096;48.142;16.290;2023-06-22T03:51:49;20.90;99.90
14095;DHT22;18096;48.142;16.290;2023-06-22T03:54:14;21.00;99.90
14095;DHT22;18096;48.142;16.290;2023-06-22T03:56:40;21.00;99.90
14095;DHT22;18096;48.142;16.290;2023-06-22T03:59:05;21.10;99.90
14095;DHT22;18096;48.142;16.290;2023-06-22T04:01:31;21.10;99.90
14095;DHT22;18096;48.142;16.290;2023-06-22T04:03:57;21.10;99.90
14095;DHT22;18096;48.142;16.290;2023-06-22T04:06:22;21.20;99.90
14095;DHT22;18096;48.142;16.290;2023-06-22T04:08:48;21.20;99.90
14095;DHT22;18096;48.142;16.290;2023-06-22T04:11:16;21.30;99.90
14095;DHT22;18096;48.142;16.290;2023-06-22T04:13:43;21.30;99.90
14095;DHT22;18096;48.142;16.290;2023-06-22T04:16:08;21.40;99.90
14095;DHT22;18096;48.142;16.290;2023-06-22T04:18:34;21.40;99.90
14095;DHT22;18096;48.142;16.290;2023-06-22T04:21:00;21.40;99.90
14095;DHT22;18096;48.142;16.290;2023-06-22T04:23:25;21.50;99.90
14095;DHT22;18096;48.142;16.290;2023-06-22T04:25:51;21.50;99.90
14095;DHT22;18096;48.142;16.290;2023-06-22T04:28:17;21.50;99.90
14095;DHT22;18096;48.142;16.290;2023-06-22T04:30:42;21.60;99.90
14095;DHT22;18096;48.142;16.290;2023-06-22T04:33:15;21.60;99.90
14095;DHT22;18096;48.142;16.290;2023-06-22T04:35:41;21.70;99.90
14095;DHT22;18096;48.142;16.290;2023-06-22T04:38:07;21.70;99.90
14095;DHT22;18096;48.142;16.290;2023-06-22T04:40:33;21.80;99.90
14095;DHT22;18096;48.142;16.290;2023-06-22T04:42:59;21.80;99.90
14095;DHT22;18096;48.142;16.290;2023-06-22T04:45:28;21.90;99.90
14095;DHT22;18096;48.142;16.290;2023-06-22T04:47:57;22.00;99.90
14095;DHT22;18096;48.142;16.290;2023-06-22T04:50:23;22.00;99.90
14095;DHT22;18096;48.142;16.290;2023-06-22T04:52:49;22.10;99.90
14095;DHT22;18096;48.142;16.290;2023-06-22T04:55:15;22.10;99.90
14095;DHT22;18096;48.142;16.290;2023-06-22T04:57:45;22.20;99.90
14095;DHT22;18096;48.142;16.290;2023-06-22T05:00:15;22.20;99.90
14095;DHT22;18096;48.142;16.290;2023-06-22T05:02:43;22.30;99.90
14095;DHT22;18096;48.142;16.290;2023-06-22T05:05:10;22.30;99.90
14095;DHT22;18096;48.142;16.290;2023-06-22T05:07:39;22.30;99.90
14095;DHT22;18096;48.142;16.290;2023-06-22T05:10:09;22.40;99.90
14095;DHT22;18096;48.142;16.290;2023-06-22T05:12:36;22.40;99.90
14095;DHT22;18096;48.142;16.290;2023-06-22T05:15:01;22.50;99.90
14095;DHT22;18096;48.142;16.290;2023-06-22T05:17:27;22.60;99.90
14095;DHT22;18096;48.142;16.290;2023-06-22T05:19:53;22.60;99.90
14095;DHT22;18096;48.142;16.290;2023-06-22T05:22:19;22.70;99.90
14095;DHT22;18096;48.142;16.290;2023-06-22T05:24:45;22.70;99.90
14095;DHT22;18096;48.142;16.290;2023-06-22T05:27:11;22.80;99.90
14095;DHT22;18096;48.142;16.290;2023-06-22T05:29:37;22.90;99.90
14095;DHT22;18096;48.142;16.290;2023-06-22T05:32:03;22.90;99.90
14095;DHT22;18096;48.142;16.290;2023-06-22T05:34:28;22.90;99.90
14095;DHT22;18096;48.142;16.290;2023-06-22T05:36:54;22.90;99.90
14095;DHT22;18096;48.142;16.290;2023-06-22T05:39:20;23.00;99.90
14095;DHT22;18096;48.142;16.290;2023-06-22T05:41:46;23.00;99.90
14095;DHT22;18096;48.142;16.290;2023-06-22T05:44:12;23.10;99.90
14095;DHT22;18096;48.142;16.290;2023-06-22T05:46:41;23.20;99.90
14095;DHT22;18096;48.142;16.290;2023-06-22T05:49:10;23.20;99.90
14095;DHT22;18096;48.142;16.290;2023-06-22T05:51:36;23.30;99.90
14095;DHT22;18096;48.142;16.290;2023-06-22T05:54:02;23.30;99.90
14095;DHT22;18096;48.142;16.290;2023-06-22T05:56:27;23.40;99.90
14095;DHT22;18096;48.142;16.290;2023-06-22T05:58:53;23.50;99.90
14095;DHT22;18096;48.142;16.290;2023-06-22T06:01:18;23.60;99.90
14095;DHT22;18096;48.142;16.290;2023-06-22T06:03:44;23.70;99.90
14095;DHT22;18096;48.142;16.290;2023-06-22T06:06:10;23.70;99.90
14095;DHT22;18096;48.142;16.290;2023-06-22T06:08:37;23.80;99.90
14095;DHT22;18096;48.142;16.290;2023-06-22T06:11:03;23.90;99.90
14095;DHT22;18096;48.142;16.290;2023-06-22T06:13:28;23.90;99.90
14095;DHT22;18096;48.142;16.290;2023-06-22T06:15:54;24.00;99.90
14095;DHT22;18096;48.142;16.290;2023-06-22T06:18:22;24.00;99.90
14095;DHT22;18096;48.142;16.290;2023-06-22T06:20:48;24.00;99.90
14095;DHT22;18096;48.142;16.290;2023-06-22T06:23:14;24.10;99.90
14095;DHT22;18096;48.142;16.290;2023-06-22T06:25:40;24.20;99.90
14095;DHT22;18096;48.142;16.290;2023-06-22T06:28:06;24.20;99.90
14095;DHT22;18096;48.142;16.290;2023-06-22T06:30:31;24.20;99.90
14095;DHT22;18096;48.142;16.290;2023-06-22T06:32:57;24.30;99.90
14095;DHT22;18096;48.142;16.290;2023-06-22T06:35:23;24.40;99.90
14095;DHT22;18096;48.142;16.290;2023-06-22T06:37:50;24.40;99.90
14095;DHT22;18096;48.142;16.290;2023-06-22T06:40:17;24.50;99.90
14095;DHT22;18096;48.142;16.290;2023-06-22T06:42:45;24.40;99.90
14095;DHT22;18096;48.142;16.290;2023-06-22T06:45:11;24.50;99.90
14095;DHT22;18096;48.142;16.290;2023-06-22T06:47:38;24.50;99.90
14095;DHT22;18096;48.142;16.290;2023-06-22T06:50:05;24.50;99.90
14095;DHT22;18096;48.142;16.290;2023-06-22T06:52:31;24.60;99.90
14095;DHT22;18096;48.142;16.290;2023-06-22T06:54:56;24.60;99.90
14095;DHT22;18096;48.142;16.290;2023-06-22T06:57:22;24.60;99.90
14095;DHT22;18096;48.142;16.290;2023-06-22T06:59:48;24.70;99.90
14095;DHT22;18096;48.142;16.290;2023-06-22T07:02:15;24.70;99.90
14095;DHT22;18096;48.142;16.290;2023-06-22T07:04:41;24.80;99.90
14095;DHT22;18096;48.142;16.290;2023-06-22T07:07:06;24.80;99.90
14095;DHT22;18096;48.142;16.290;2023-06-22T07:09:32;24.80;99.90
14095;DHT22;18096;48.142;16.290;2023-06-22T07:11:58;24.90;99.90
14095;DHT22;18096;48.142;16.290;2023-06-22T07:14:23;24.90;99.90
14095;DHT22;18096;48.142;16.290;2023-06-22T07:16:49;24.90;99.90
14095;DHT22;18096;48.142;16.290;2023-06-22T07:19:15;24.90;99.90
14095;DHT22;18096;48.142;16.290;2023-06-22T07:21:41;24.90;99.90
14095;DHT22;18096;48.142;16.290;2023-06-22T07:24:07;24.90;99.90
14095;DHT22;18096;48.142;16.290;2023-06-22T07:26:33;25.00;99.90
14095;DHT22;18096;48.142;16.290;2023-06-22T07:28:59;25.10;99.90
14095;DHT22;18096;48.142;16.290;2023-06-22T07:31:25;25.20;99.90
14095;DHT22;18096;48.142;16.290;2023-06-22T07:33:51;25.20;99.90
14095;DHT22;18096;48.142;16.290;2023-06-22T07:36:17;25.20;99.90
14095;DHT22;18096;48.142;16.290;2023-06-22T07:38:43;25.20;99.90
14095;DHT22;18096;48.142;16.290;2023-06-22T07:41:09;25.30;99.90
14095;DHT22;18096;48.142;16.290;2023-06-22T07:43:35;25.40;99.90
14095;DHT22;18096;48.142;16.290;2023-06-22T07:46:03;25.40;99.90
14095;DHT22;18096;48.142;16.290;2023-06-22T07:48:29;25.40;99.90
14095;DHT22;18096;48.142;16.290;2023-06-22T07:50:55;25.40;99.90
14095;DHT22;18096;48.142;16.290;2023-06-22T07:53:21;25.50;99.90
14095;DHT22;18096;48.142;16.290;2023-06-22T07:55:47;25.60;99.90
14095;DHT22;18096;48.142;16.290;2023-06-22T07:58:13;25.70;99.90
14095;DHT22;18096;48.142;16.290;2023-06-22T08:00:39;25.70;99.90
14095;DHT22;18096;48.142;16.290;2023-06-22T08:03:04;25.70;99.90
14095;DHT22;18096;48.142;16.290;2023-06-22T08:05:31;25.80;99.90
14095;DHT22;18096;48.142;16.290;2023-06-22T08:07:56;25.80;99.90
14095;DHT22;18096;48.142;16.290;2023-06-22T08:10:22;25.80;99.90
14095;DHT22;18096;48.142;16.290;2023-06-22T08:12:48;25.90;99.90
14095;DHT22;18096;48.142;16.290;2023-06-22T08:15:14;25.90;99.90
14095;DHT22;18096;48.142;16.290;2023-06-22T08:17:39;26.00;99.90
14095;DHT22;18096;48.142;16.290;2023-06-22T08:20:06;26.00;99.90
14095;DHT22;18096;48.142;16.290;2023-06-22T08:22:35;26.00;99.90
14095;DHT22;18096;48.142;16.290;2023-06-22T08:25:02;26.00;99.90
14095;DHT22;18096;48.142;16.290;2023-06-22T08:27:30;26.10;99.90
14095;DHT22;18096;48.142;16.290;2023-06-22T08:29:57;26.00;99.90
14095;DHT22;18096;48.142;16.290;2023-06-22T08:32:25;26.10;99.90
14095;DHT22;18096;48.142;16.290;2023-06-22T08:34:52;26.10;99.90
14095;DHT22;18096;48.142;16.290;2023-06-22T08:37:18;26.20;99.90
14095;DHT22;18096;48.142;16.290;2023-06-22T08:39:44;26.20;99.90
14095;DHT22;18096;48.142;16.290;2023-06-22T08:42:10;26.20;99.90
14095;DHT22;18096;48.142;16.290;2023-06-22T08:44:35;26.30;99.90
14095;DHT22;18096;48.142;16.290;2023-06-22T08:47:01;26.30;99.90
14095;DHT22;18096;48.142;16.290;2023-06-22T08:49:27;26.30;99.90
14095;DHT22;18096;48.142;16.290;2023-06-22T08:51:53;26.30;99.90
14095;DHT22;18096;48.142;16.290;2023-06-22T08:54:21;26.40;99.90
14095;DHT22;18096;48.142;16.290;2023-06-22T08:56:47;26.50;99.90
14095;DHT22;18096;48.142;16.290;2023-06-22T08:59:12;26.50;99.90
14095;DHT22;18096;48.142;16.290;2023-06-22T09:01:38;26.60;99.90
14095;DHT22;18096;48.142;16.290;2023-06-22T09:04:04;26.70;99.90
14095;DHT22;18096;48.142;16.290;2023-06-22T09:06:31;26.70;99.90
14095;DHT22;18096;48.142;16.290;2023-06-22T09:08:57;26.70;99.90
14095;DHT22;18096;48.142;16.290;2023-06-22T09:11:25;26.70;99.90
14095;DHT22;18096;48.142;16.290;2023-06-22T09:13:50;26.80;99.90
14095;DHT22;18096;48.142;16.290;2023-06-22T09:16:17;26.80;99.90
14095;DHT22;18096;48.142;16.290;2023-06-22T09:18:46;26.90;99.90
14095;DHT22;18096;48.142;16.290;2023-06-22T09:21:12;27.00;99.90
14095;DHT22;18096;48.142;16.290;2023-06-22T09:23:38;27.10;99.90
14095;DHT22;18096;48.142;16.290;2023-06-22T09:26:03;27.10;99.90
14095;DHT22;18096;48.142;16.290;2023-06-22T09:28:29;27.20;99.90
14095;DHT22;18096;48.142;16.290;2023-06-22T09:30:55;27.20;99.90
14095;DHT22;18096;48.142;16.290;2023-06-22T09:33:24;27.20;99.90
14095;DHT22;18096;48.142;16.290;2023-06-22T09:35:49;27.20;99.90
14095;DHT22;18096;48.142;16.290;2023-06-22T09:38:16;27.20;99.90
14095;DHT22;18096;48.142;16.290;2023-06-22T09:40:42;27.30;99.90
14095;DHT22;18096;48.142;16.290;2023-06-22T09:43:08;27.30;99.90
14095;DHT22;18096;48.142;16.290;2023-06-22T09:45:34;27.40;99.90
14095;DHT22;18096;48.142;16.290;2023-06-22T09:47:59;27.40;99.90
14095;DHT22;18096;48.142;16.290;2023-06-22T09:50:25;27.50;99.90
14095;DHT22;18096;48.142;16.290;2023-06-22T09:52:51;27.40;99.90
14095;DHT22;18096;48.142;16.290;2023-06-22T09:55:20;27.50;99.90
14095;DHT22;18096;48.142;16.290;2023-06-22T09:57:46;27.50;99.90
14095;DHT22;18096;48.142;16.290;2023-06-22T10:00:12;27.60;99.90
14095;DHT22;18096;48.142;16.290;2023-06-22T10:02:39;27.70;99.90
14095;DHT22;18096;48.142;16.290;2023-06-22T10:05:05;27.70;99.90
14095;DHT22;18096;48.142;16.290;2023-06-22T10:07:33;27.80;99.90
14095;DHT22;18096;48.142;16.290;2023-06-22T10:09:58;27.80;99.90
14095;DHT22;18096;48.142;16.290;2023-06-22T10:12:25;27.80;99.90
14095;DHT22;18096;48.142;16.290;2023-06-22T10:14:50;27.80;99.90
14095;DHT22;18096;48.142;16.290;2023-06-22T10:17:16;27.90;99.90
14095;DHT22;18096;48.142;16.290;2023-06-22T10:19:42;28.00;99.90
14095;DHT22;18096;48.142;16.290;2023-06-22T10:22:07;28.00;99.90
14095;DHT22;18096;48.142;16.290;2023-06-22T10:24:33;28.00;99.90
14095;DHT22;18096;48.142;16.290;2023-06-22T10:26:59;28.10;99.90
14095;DHT22;18096;48.142;16.290;2023-06-22T10:29:24;28.10;99.90
14095;DHT22;18096;48.142;16.290;2023-06-22T10:31:50;28.20;99.90
14095;DHT22;18096;48.142;16.290;2023-06-22T10:34:15;28.20;99.90
14095;DHT22;18096;48.142;16.290;2023-06-22T10:36:41;28.20;99.90
14095;DHT22;18096;48.142;16.290;2023-06-22T10:39:07;28.20;99.90
14095;DHT22;18096;48.142;16.290;2023-06-22T10:41:32;28.20;99.90
14095;DHT22;18096;48.142;16.290;2023-06-22T10:43:58;28.30;99.90
14095;DHT22;18096;48.142;16.290;2023-06-22T10:46:25;28.30;99.90
14095;DHT22;18096;48.142;16.290;2023-06-22T10:48:51;28.30;99.90
14095;DHT22;18096;48.142;16.290;2023-06-22T10:51:19;28.30;99.90
14095;DHT22;18096;48.142;16.290;2023-06-22T10:53:45;28.40;99.90
14095;DHT22;18096;48.142;16.290;2023-06-22T10:56:10;28.40;99.90
14095;DHT22;18096;48.142;16.290;2023-06-22T10:58:36;28.40;99.90
14095;DHT22;18096;48.142;16.290;2023-06-22T11:01:02;28.50;99.90
14095;DHT22;18096;48.142;16.290;2023-06-22T11:03:28;28.50;99.90
14095;DHT22;18096;48.142;16.290;2023-06-22T11:05:54;28.60;99.90
14095;DHT22;18096;48.142;16.290;2023-06-22T11:08:19;28.50;99.90
14095;DHT22;18096;48.142;16.290;2023-06-22T11:10:45;28.60;99.90
14095;DHT22;18096;48.142;16.290;2023-06-22T11:13:11;28.60;99.90
14095;DHT22;18096;48.142;16.290;2023-06-22T11:15:37;28.60;99.90
14095;DHT22;18096;48.142;16.290;2023-06-22T11:18:03;28.70;99.90
14095;DHT22;18096;48.142;16.290;2023-06-22T11:20:31;28.70;99.90
14095;DHT22;18096;48.142;16.290;2023-06-22T11:22:56;28.70;99.90
14095;DHT22;18096;48.142;16.290;2023-06-22T11:25:22;28.70;99.90
14095;DHT22;18096;48.142;16.290;2023-06-22T11:27:48;28.80;99.90
14095;DHT22;18096;48.142;16.290;2023-06-22T11:30:13;28.80;99.90
14095;DHT22;18096;48.142;16.290;2023-06-22T11:32:39;28.80;99.90
14095;DHT22;18096;48.142;16.290;2023-06-22T11:35:05;28.80;99.90
14095;DHT22;18096;48.142;16.290;2023-06-22T11:37:30;28.90;99.90
14095;DHT22;18096;48.142;16.290;2023-06-22T11:39:56;28.90;99.90
14095;DHT22;18096;48.142;16.290;2023-06-22T11:42:21;28.90;99.90
14095;DHT22;18096;48.142;16.290;2023-06-22T11:44:49;29.00;99.90
14095;DHT22;18096;48.142;16.290;2023-06-22T11:47:14;29.00;99.90
14095;DHT22;18096;48.142;16.290;2023-06-22T11:49:41;29.00;99.90
14095;DHT22;18096;48.142;16.290;2023-06-22T11:52:07;29.10;99.90
14095;DHT22;18096;48.142;16.290;2023-06-22T11:54:32;29.20;99.90
14095;DHT22;18096;48.142;16.290;2023-06-22T11:56:59;29.20;99.90
14095;DHT22;18096;48.142;16.290;2023-06-22T11:59:24;29.20;99.90
14095;DHT22;18096;48.142;16.290;2023-06-22T12:01:50;29.20;99.90
14095;DHT22;18096;48.142;16.290;2023-06-22T12:04:17;29.20;99.90
14095;DHT22;18096;48.142;16.290;2023-06-22T12:06:43;29.20;99.90
14095;DHT22;18096;48.142;16.290;2023-06-22T12:09:09;29.20;99.90
14095;DHT22;18096;48.142;16.290;2023-06-22T12:11:35;29.30;99.70
14095;DHT22;18096;48.142;16.290;2023-06-22T12:14:01;29.30;99.90
14095;DHT22;18096;48.142;16.290;2023-06-22T12:16:30;29.30;99.90
14095;DHT22;18096;48.142;16.290;2023-06-22T12:18:56;29.30;99.90
14095;DHT22;18096;48.142;16.290;2023-06-22T12:21:22;29.30;99.90
14095;DHT22;18096;48.142;16.290;2023-06-22T12:23:48;29.30;99.60
14095;DHT22;18096;48.142;16.290;2023-06-22T12:26:13;29.40;99.60
14095;DHT22;18096;48.142;16.290;2023-06-22T12:28:39;29.40;99.40
14095;DHT22;18096;48.142;16.290;2023-06-22T12:31:04;29.40;98.90
14095;DHT22;18096;48.142;16.290;2023-06-22T12:33:30;29.40;98.50
14095;DHT22;18096;48.142;16.290;2023-06-22T12:35:56;29.50;98.40
14095;DHT22;18096;48.142;16.290;2023-06-22T12:38:22;29.60;98.60
14095;DHT22;18096;48.142;16.290;2023-06-22T12:40:47;29.50;99.40
14095;DHT22;18096;48.142;16.290;2023-06-22T12:43:14;29.50;99.70
14095;DHT22;18096;48.142;16.290;2023-06-22T12:45:40;29.50;99.10
14095;DHT22;18096;48.142;16.290;2023-06-22T12:48:06;29.50;98.60
14095;DHT22;18096;48.142;16.290;2023-06-22T12:50:32;29.50;98.60
14095;DHT22;18096;48.142;16.290;2023-06-22T12:52:57;29.60;98.50
14095;DHT22;18096;48.142;16.290;2023-06-22T12:55:23;29.60;98.20
14095;DHT22;18096;48.142;16.290;2023-06-22T12:57:49;29.70;97.60
14095;DHT22;18096;48.142;16.290;2023-06-22T13:00:15;29.70;97.80
14095;DHT22;18096;48.142;16.290;2023-06-22T13:02:40;29.70;98.30
14095;DHT22;18096;48.142;16.290;2023-06-22T13:05:06;29.70;98.30
14095;DHT22;18096;48.142;16.290;2023-06-22T13:07:32;29.70;98.20
14095;DHT22;18096;48.142;16.290;2023-06-22T13:09:57;29.80;98.10
14095;DHT22;18096;48.142;16.290;2023-06-22T13:12:23;29.80;98.00
14095;DHT22;18096;48.142;16.290;2023-06-22T13:14:49;29.80;98.40
14095;DHT22;18096;48.142;16.290;2023-06-22T13:17:15;29.80;98.70
14095;DHT22;18096;48.142;16.290;2023-06-22T13:19:41;29.80;98.60
14095;DHT22;18096;48.142;16.290;2023-06-22T13:24:51;29.90;97.60
14095;DHT22;18096;48.142;16.290;2023-06-22T13:27:16;30.00;97.60
14095;DHT22;18096;48.142;16.290;2023-06-22T13:29:42;30.00;97.30
14095;DHT22;18096;48.142;16.290;2023-06-22T13:32:08;30.10;97.40
14095;DHT22;18096;48.142;16.290;2023-06-22T13:34:33;30.10;97.50
14095;DHT22;18096;48.142;16.290;2023-06-22T13:36:59;30.10;97.40
14095;DHT22;18096;48.142;16.290;2023-06-22T13:39:24;30.10;97.40
14095;DHT22;18096;48.142;16.290;2023-06-22T13:41:50;30.10;97.30
14095;DHT22;18096;48.142;16.290;2023-06-22T13:44:16;30.20;97.00
14095;DHT22;18096;48.142;16.290;2023-06-22T13:46:41;30.20;97.20
14095;DHT22;18096;48.142;16.290;2023-06-22T13:49:07;30.10;97.50
14095;DHT22;18096;48.142;16.290;2023-06-22T13:51:32;30.10;97.30
14095;DHT22;18096;48.142;16.290;2023-06-22T13:53:58;30.10;97.80
14095;DHT22;18096;48.142;16.290;2023-06-22T13:56:24;30.10;97.50
14095;DHT22;18096;48.142;16.290;2023-06-22T13:58:49;30.10;97.30
14095;DHT22;18096;48.142;16.290;2023-06-22T14:01:15;30.20;97.40
14095;DHT22;18096;48.142;16.290;2023-06-22T14:03:40;30.10;97.50
14095;DHT22;18096;48.142;16.290;2023-06-22T14:06:06;30.10;98.10
14095;DHT22;18096;48.142;16.290;2023-06-22T14:08:32;30.10;98.00
14095;DHT22;18096;48.142;16.290;2023-06-22T14:10:57;30.10;97.90
14095;DHT22;18096;48.142;16.290;2023-06-22T14:13:23;30.10;98.40
14095;DHT22;18096;48.142;16.290;2023-06-22T14:15:48;30.10;98.30
14095;DHT22;18096;48.142;16.290;2023-06-22T14:18:14;30.10;98.00
14095;DHT22;18096;48.142;16.290;2023-06-22T14:20:40;30.20;97.90
14095;DHT22;18096;48.142;16.290;2023-06-22T14:23:06;30.20;98.40
14095;DHT22;18096;48.142;16.290;2023-06-22T14:25:32;30.20;98.60
14095;DHT22;18096;48.142;16.290;2023-06-22T14:27:57;30.20;98.70
14095;DHT22;18096;48.142;16.290;2023-06-22T14:30:23;30.10;98.30
14095;DHT22;18096;48.142;16.290;2023-06-22T14:32:48;30.20;98.30
14095;DHT22;18096;48.142;16.290;2023-06-22T14:35:14;30.20;98.60
14095;DHT22;18096;48.142;16.290;2023-06-22T14:37:39;30.20;98.30
14095;DHT22;18096;48.142;16.290;2023-06-22T14:40:06;30.20;98.30
14095;DHT22;18096;48.142;16.290;2023-06-22T14:42:32;30.20;98.50
14095;DHT22;18096;48.142;16.290;2023-06-22T14:44:57;30.20;98.50
14095;DHT22;18096;48.142;16.290;2023-06-22T14:47:23;30.10;98.80
14095;DHT22;18096;48.142;16.290;2023-06-22T14:49:48;30.10;98.50
14095;DHT22;18096;48.142;16.290;2023-06-22T14:52:14;30.10;98.10
14095;DHT22;18096;48.142;16.290;2023-06-22T14:54:40;30.10;98.60
14095;DHT22;18096;48.142;16.290;2023-06-22T14:57:05;30.00;98.60
14095;DHT22;18096;48.142;16.290;2023-06-22T14:59:31;29.90;98.30
14095;DHT22;18096;48.142;16.290;2023-06-22T15:01:57;29.90;98.60
14095;DHT22;18096;48.142;16.290;2023-06-22T15:04:22;29.90;99.20
14095;DHT22;18096;48.142;16.290;2023-06-22T15:06:48;29.90;99.40
14095;DHT22;18096;48.142;16.290;2023-06-22T15:09:14;29.90;99.10
14095;DHT22;18096;48.142;16.290;2023-06-22T15:11:39;29.90;99.10
14095;DHT22;18096;48.142;16.290;2023-06-22T15:14:05;30.00;98.70
14095;DHT22;18096;48.142;16.290;2023-06-22T15:16:30;30.10;99.10